sensor_id;sensor_type;location;lat;lon;timestamp;P1;durP1;ratioP1;P2;durP2;ratioP2
74920;SDS011;63483;47.384;8.860;2023-06-22T00:01:48;7.07;;;3.47;;
74920;SDS011;63483;47.384;8.860;2023-06-22T00:04:13;9.73;;;3.13;;
74920;SDS011;63483;47.384;8.860;2023-06-22T00:06:39;6.13;;;3.33;;
74920;SDS011;63483;47.384;8.860;2023-06-22T00:09:04;9.43;;;3.40;;
74920;SDS011;63483;47.384;8.860;2023-06-22T00:11:31;7.07;;;3.97;;
74920;SDS011;63483;47.384;8.860;2023-06-22T00:13:58;8.35;;;3.58;;
74920;SDS011;63483;47.384;8.860;2023-06-22T00:16:23;9.13;;;3.60;;
74920;SDS011;63483;47.384;8.860;2023-06-22T00:18:49;9.07;;;3.40;;
74920;SDS011;63483;47.384;8.860;2023-06-22T00:21:14;7.73;;;3.90;;
74920;SDS011;63483;47.384;8.860;2023-06-22T00:23:39;7.23;;;3.40;;
74920;SDS011;63483;47.384;8.860;2023-06-22T00:26:06;7.95;;;3.88;;
74920;SDS011;63483;47.384;8.860;2023-06-22T00:28:31;9.73;;;3.80;;
74920;SDS011;63483;47.384;8.860;2023-06-22T00:30:57;7.83;;;3.73;;
74920;SDS011;63483;47.384;8.860;2023-06-22T00:33:22;8.23;;;3.33;;
74920;SDS011;63483;47.384;8.860;2023-06-22T00:35:48;8.03;;;3.23;;
74920;SDS011;63483;47.384;8.860;2023-06-22T00:38:13;8.80;;;3.63;;
74920;SDS011;63483;47.384;8.860;2023-06-22T00:40:38;8.07;;;3.30;;
74920;SDS011;63483;47.384;8.860;2023-06-22T00:43:04;6.97;;;3.28;;
74920;SDS011;63483;47.384;8.860;2023-06-22T00:45:30;9.23;;;3.70;;
74920;SDS011;63483;47.384;8.860;2023-06-22T00:47:56;7.25;;;3.42;;
74920;SDS011;63483;47.384;8.860;2023-06-22T00:50:24;8.97;;;3.53;;
74920;SDS011;63483;47.384;8.860;2023-06-22T00:52:51;7.90;;;3.35;;
74920;SDS011;63483;47.384;8.860;2023-06-22T00:55:22;7.32;;;3.63;;
74920;SDS011;63483;47.384;8.860;2023-06-22T00:57:48;6.72;;;3.25;;
74920;SDS011;63483;47.384;8.860;2023-06-22T01:00:17;9.32;;;3.55;;
74920;SDS011;63483;47.384;8.860;2023-06-22T01:02:45;7.07;;;3.30;;
74920;SDS011;63483;47.384;8.860;2023-06-22T01:05:12;7.72;;;3.67;;
74920;SDS011;63483;47.384;8.860;2023-06-22T01:10:35;10.57;;;3.60;;
74920;SDS011;63483;47.384;8.860;2023-06-22T01:13:16;6.32;;;3.42;;
74920;SDS011;63483;47.384;8.860;2023-06-22T01:15:51;8.53;;;4.07;;
74920;SDS011;63483;47.384;8.860;2023-06-22T01:18:22;7.55;;;3.40;;
74920;SDS011;63483;47.384;8.860;2023-06-22T01:20:50;7.50;;;3.72;;
74920;SDS011;63483;47.384;8.860;2023-06-22T01:29:07;6.97;;;3.07;;
74920;SDS011;63483;47.384;8.860;2023-06-22T01:31:38;9.80;;;3.60;;
74920;SDS011;63483;47.384;8.860;2023-06-22T01:34:05;8.00;;;3.45;;
74920;SDS011;63483;47.384;8.860;2023-06-22T01:36:33;7.97;;;3.33;;
74920;SDS011;63483;47.384;8.860;2023-06-22T01:38:59;6.85;;;3.55;;
74920;SDS011;63483;47.384;8.860;2023-06-22T01:41:27;9.03;;;3.47;;
74920;SDS011;63483;47.384;8.860;2023-06-22T01:43:54;8.15;;;3.15;;
74920;SDS011;63483;47.384;8.860;2023-06-22T01:46:21;8.63;;;3.88;;
74920;SDS011;63483;47.384;8.860;2023-06-22T01:48:48;8.38;;;3.25;;
74920;SDS011;63483;47.384;8.860;2023-06-22T01:51:14;7.30;;;3.35;;
74920;SDS011;63483;47.384;8.860;2023-06-22T01:53:40;7.73;;;3.07;;
74920;SDS011;63483;47.384;8.860;2023-06-22T01:56:06;8.88;;;3.42;;
74920;SDS011;63483;47.384;8.860;2023-06-22T01:58:31;9.13;;;3.10;;
74920;SDS011;63483;47.384;8.860;2023-06-22T02:01:12;9.52;;;3.42;;
74920;SDS011;63483;47.384;8.860;2023-06-22T02:03:44;5.97;;;3.35;;
74920;SDS011;63483;47.384;8.860;2023-06-22T02:06:21;8.23;;;4.03;;
74920;SDS011;63483;47.384;8.860;2023-06-22T02:08:51;8.52;;;3.25;;
74920;SDS011;63483;47.384;8.860;2023-06-22T02:11:22;7.28;;;3.25;;
74920;SDS011;63483;47.384;8.860;2023-06-22T02:13:49;6.78;;;3.40;;
74920;SDS011;63483;47.384;8.860;2023-06-22T02:16:15;9.03;;;3.60;;
74920;SDS011;63483;47.384;8.860;2023-06-22T02:18:48;11.30;;;4.43;;
74920;SDS011;63483;47.384;8.860;2023-06-22T02:21:17;6.40;;;3.85;;
74920;SDS011;63483;47.384;8.860;2023-06-22T02:23:43;7.07;;;3.08;;
74920;SDS011;63483;47.384;8.860;2023-06-22T02:26:08;10.83;;;4.03;;
74920;SDS011;63483;47.384;8.860;2023-06-22T02:28:34;5.38;;;3.28;;
74920;SDS011;63483;47.384;8.860;2023-06-22T02:31:00;6.97;;;3.97;;
74920;SDS011;63483;47.384;8.860;2023-06-22T02:33:25;10.90;;;3.50;;
74920;SDS011;63483;47.384;8.860;2023-06-22T02:35:50;6.87;;;3.37;;
74920;SDS011;63483;47.384;8.860;2023-06-22T02:38:16;10.07;;;3.83;;
74920;SDS011;63483;47.384;8.860;2023-06-22T02:40:42;8.93;;;3.70;;
74920;SDS011;63483;47.384;8.860;2023-06-22T02:43:07;9.03;;;4.00;;
74920;SDS011;63483;47.384;8.860;2023-06-22T02:45:33;7.83;;;3.17;;
74920;SDS011;63483;47.384;8.860;2023-06-22T02:47:58;6.63;;;3.00;;
74920;SDS011;63483;47.384;8.860;2023-06-22T02:50:23;10.03;;;3.33;;
74920;SDS011;63483;47.384;8.860;2023-06-22T02:52:49;10.07;;;3.83;;
74920;SDS011;63483;47.384;8.860;2023-06-22T02:55:14;9.07;;;3.53;;
74920;SDS011;63483;47.384;8.860;2023-06-22T02:57:40;7.63;;;3.70;;
74920;SDS011;63483;47.384;8.860;2023-06-22T03:00:09;7.17;;;3.80;;
74920;SDS011;63483;47.384;8.860;2023-06-22T03:02:45;7.35;;;3.80;;
74920;SDS011;63483;47.384;8.860;2023-06-22T03:05:13;8.90;;;3.58;;
74920;SDS011;63483;47.384;8.860;2023-06-22T03:07:40;6.78;;;3.60;;
74920;SDS011;63483;47.384;8.860;2023-06-22T03:10:07;8.63;;;3.50;;
74920;SDS011;63483;47.384;8.860;2023-06-22T03:12:34;8.97;;;3.70;;
74920;SDS011;63483;47.384;8.860;2023-06-22T03:14:59;7.75;;;3.63;;
74920;SDS011;63483;47.384;8.860;2023-06-22T03:17:25;9.83;;;3.33;;
74920;SDS011;63483;47.384;8.860;2023-06-22T03:19:50;7.27;;;3.50;;
74920;SDS011;63483;47.384;8.860;2023-06-22T03:22:15;10.27;;;4.07;;
74920;SDS011;63483;47.384;8.860;2023-06-22T03:24:41;6.53;;;3.87;;
74920;SDS011;63483;47.384;8.860;2023-06-22T03:27:06;7.70;;;3.70;;
74920;SDS011;63483;47.384;8.860;2023-06-22T03:29:31;7.93;;;3.65;;
74920;SDS011;63483;47.384;8.860;2023-06-22T03:31:57;8.00;;;3.80;;
74920;SDS011;63483;47.384;8.860;2023-06-22T03:34:22;7.27;;;3.37;;
74920;SDS011;63483;47.384;8.860;2023-06-22T03:36:48;9.93;;;4.07;;
74920;SDS011;63483;47.384;8.860;2023-06-22T03:39:13;7.90;;;3.50;;
74920;SDS011;63483;47.384;8.860;2023-06-22T03:41:38;7.47;;;3.30;;
74920;SDS011;63483;47.384;8.860;2023-06-22T03:44:04;9.43;;;3.57;;
74920;SDS011;63483;47.384;8.860;2023-06-22T03:46:29;9.87;;;3.70;;
74920;SDS011;63483;47.384;8.860;2023-06-22T03:48:55;10.60;;;3.63;;
74920;SDS011;63483;47.384;8.860;2023-06-22T03:51:20;8.80;;;3.00;;
74920;SDS011;63483;47.384;8.860;2023-06-22T03:53:45;9.87;;;4.07;;
74920;SDS011;63483;47.384;8.860;2023-06-22T03:56:11;6.78;;;3.10;;
74920;SDS011;63483;47.384;8.860;2023-06-22T03:58:36;7.23;;;3.30;;
74920;SDS011;63483;47.384;8.860;2023-06-22T04:01:07;8.32;;;4.10;;
74920;SDS011;63483;47.384;8.860;2023-06-22T04:03:36;9.93;;;3.85;;
74920;SDS011;63483;47.384;8.860;2023-06-22T04:06:02;11.83;;;3.40;;
74920;SDS011;63483;47.384;8.860;2023-06-22T04:08:27;9.50;;;3.22;;
74920;SDS011;63483;47.384;8.860;2023-06-22T04:10:53;6.67;;;3.70;;
74920;SDS011;63483;47.384;8.860;2023-06-22T04:13:18;9.97;;;3.80;;
74920;SDS011;63483;47.384;8.860;2023-06-22T04:15:43;6.87;;;2.90;;
74920;SDS011;63483;47.384;8.860;2023-06-22T04:18:09;8.13;;;3.93;;
74920;SDS011;63483;47.384;8.860;2023-06-22T04:20:34;11.20;;;4.20;;
74920;SDS011;63483;47.384;8.860;2023-06-22T04:22:59;10.07;;;3.78;;
74920;SDS011;63483;47.384;8.860;2023-06-22T04:25:25;6.63;;;3.13;;
74920;SDS011;63483;47.384;8.860;2023-06-22T04:27:50;9.50;;;3.43;;
74920;SDS011;63483;47.384;8.860;2023-06-22T04:30:16;6.90;;;3.43;;
74920;SDS011;63483;47.384;8.860;2023-06-22T04:32:42;8.95;;;3.75;;
74920;SDS011;63483;47.384;8.860;2023-06-22T04:35:08;8.93;;;3.03;;
74920;SDS011;63483;47.384;8.860;2023-06-22T04:37:33;9.10;;;4.07;;
74920;SDS011;63483;47.384;8.860;2023-06-22T04:39:59;8.03;;;3.20;;
74920;SDS011;63483;47.384;8.860;2023-06-22T04:42:26;8.25;;;4.03;;
74920;SDS011;63483;47.384;8.860;2023-06-22T04:44:51;7.97;;;3.73;;
74920;SDS011;63483;47.384;8.860;2023-06-22T04:47:17;7.32;;;4.07;;
74920;SDS011;63483;47.384;8.860;2023-06-22T04:49:42;7.97;;;3.77;;
74920;SDS011;63483;47.384;8.860;2023-06-22T04:52:08;6.80;;;4.03;;
74920;SDS011;63483;47.384;8.860;2023-06-22T04:54:35;7.90;;;3.60;;
74920;SDS011;63483;47.384;8.860;2023-06-22T04:57:02;7.45;;;3.20;;
74920;SDS011;63483;47.384;8.860;2023-06-22T04:59:30;10.27;;;3.77;;
74920;SDS011;63483;47.384;8.860;2023-06-22T05:02:00;7.95;;;4.20;;
74920;SDS011;63483;47.384;8.860;2023-06-22T05:04:27;5.65;;;3.63;;
74920;SDS011;63483;47.384;8.860;2023-06-22T05:06:56;9.13;;;3.45;;
74920;SDS011;63483;47.384;8.860;2023-06-22T05:09:22;6.43;;;3.57;;
74920;SDS011;63483;47.384;8.860;2023-06-22T05:11:47;9.68;;;3.25;;
74920;SDS011;63483;47.384;8.860;2023-06-22T05:14:12;12.23;;;3.57;;
74920;SDS011;63483;47.384;8.860;2023-06-22T05:16:39;7.07;;;3.07;;
74920;SDS011;63483;47.384;8.860;2023-06-22T05:19:05;9.05;;;4.05;;
74920;SDS011;63483;47.384;8.860;2023-06-22T05:21:31;11.50;;;3.77;;
74920;SDS011;63483;47.384;8.860;2023-06-22T05:23:56;9.85;;;3.40;;
74920;SDS011;63483;47.384;8.860;2023-06-22T05:26:27;8.65;;;3.55;;
74920;SDS011;63483;47.384;8.860;2023-06-22T05:28:54;9.20;;;4.67;;
74920;SDS011;63483;47.384;8.860;2023-06-22T05:31:20;9.40;;;3.58;;
74920;SDS011;63483;47.384;8.860;2023-06-22T05:33:46;9.73;;;3.67;;
74920;SDS011;63483;47.384;8.860;2023-06-22T05:36:12;7.38;;;3.38;;
74920;SDS011;63483;47.384;8.860;2023-06-22T05:38:37;7.20;;;3.67;;
74920;SDS011;63483;47.384;8.860;2023-06-22T05:41:03;7.33;;;3.73;;
74920;SDS011;63483;47.384;8.860;2023-06-22T05:43:29;9.40;;;3.70;;
74920;SDS011;63483;47.384;8.860;2023-06-22T05:45:55;7.40;;;3.27;;
74920;SDS011;63483;47.384;8.860;2023-06-22T05:48:20;9.93;;;3.85;;
74920;SDS011;63483;47.384;8.860;2023-06-22T05:50:46;9.20;;;3.60;;
74920;SDS011;63483;47.384;8.860;2023-06-22T05:53:11;9.73;;;3.90;;
74920;SDS011;63483;47.384;8.860;2023-06-22T05:55:37;11.20;;;3.10;;
74920;SDS011;63483;47.384;8.860;2023-06-22T05:58:02;9.33;;;3.30;;
74920;SDS011;63483;47.384;8.860;2023-06-22T06:00:30;7.07;;;3.97;;
74920;SDS011;63483;47.384;8.860;2023-06-22T06:02:56;11.10;;;4.10;;
74920;SDS011;63483;47.384;8.860;2023-06-22T06:05:21;11.33;;;3.73;;
74920;SDS011;63483;47.384;8.860;2023-06-22T06:07:48;8.73;;;4.05;;
74920;SDS011;63483;47.384;8.860;2023-06-22T06:10:13;9.07;;;3.67;;
74920;SDS011;63483;47.384;8.860;2023-06-22T06:12:39;6.60;;;3.60;;
74920;SDS011;63483;47.384;8.860;2023-06-22T06:15:04;9.93;;;4.10;;
74920;SDS011;63483;47.384;8.860;2023-06-22T06:17:30;8.55;;;3.75;;
74920;SDS011;63483;47.384;8.860;2023-06-22T06:19:55;9.57;;;4.23;;
74920;SDS011;63483;47.384;8.860;2023-06-22T06:22:21;11.10;;;4.33;;
74920;SDS011;63483;47.384;8.860;2023-06-22T06:24:48;10.27;;;3.88;;
74920;SDS011;63483;47.384;8.860;2023-06-22T06:27:14;8.55;;;3.90;;
74920;SDS011;63483;47.384;8.860;2023-06-22T06:29:39;8.63;;;4.40;;
74920;SDS011;63483;47.384;8.860;2023-06-22T06:32:05;9.80;;;4.30;;
74920;SDS011;63483;47.384;8.860;2023-06-22T06:34:30;11.27;;;4.40;;
74920;SDS011;63483;47.384;8.860;2023-06-22T06:36:56;11.13;;;4.80;;
74920;SDS011;63483;47.384;8.860;2023-06-22T06:39:21;9.20;;;4.33;;
74920;SDS011;63483;47.384;8.860;2023-06-22T06:41:47;11.73;;;4.97;;
74920;SDS011;63483;47.384;8.860;2023-06-22T06:44:12;11.57;;;4.67;;
74920;SDS011;63483;47.384;8.860;2023-06-22T06:46:37;7.53;;;4.20;;
74920;SDS011;63483;47.384;8.860;2023-06-22T06:49:03;12.70;;;4.53;;
74920;SDS011;63483;47.384;8.860;2023-06-22T06:51:28;8.97;;;4.50;;
74920;SDS011;63483;47.384;8.860;2023-06-22T06:53:54;9.65;;;4.88;;
74920;SDS011;63483;47.384;8.860;2023-06-22T06:56:19;9.80;;;4.57;;
74920;SDS011;63483;47.384;8.860;2023-06-22T06:58:45;10.93;;;5.00;;
74920;SDS011;63483;47.384;8.860;2023-06-22T07:01:11;10.18;;;4.70;;
74920;SDS011;63483;47.384;8.860;2023-06-22T07:03:37;8.45;;;4.45;;
74920;SDS011;63483;47.384;8.860;2023-06-22T07:06:03;10.00;;;4.27;;
74920;SDS011;63483;47.384;8.860;2023-06-22T07:08:28;10.97;;;4.40;;
74920;SDS011;63483;47.384;8.860;2023-06-22T07:10:54;8.70;;;4.57;;
74920;SDS011;63483;47.384;8.860;2023-06-22T07:13:19;9.02;;;4.43;;
74920;SDS011;63483;47.384;8.860;2023-06-22T07:15:45;11.23;;;5.93;;
74920;SDS011;63483;47.384;8.860;2023-06-22T07:18:10;12.43;;;5.13;;
74920;SDS011;63483;47.384;8.860;2023-06-22T07:20:35;10.37;;;5.33;;
74920;SDS011;63483;47.384;8.860;2023-06-22T07:23:01;9.77;;;5.73;;
74920;SDS011;63483;47.384;8.860;2023-06-22T07:25:26;11.13;;;6.03;;
74920;SDS011;63483;47.384;8.860;2023-06-22T07:28:02;12.35;;;6.32;;
74920;SDS011;63483;47.384;8.860;2023-06-22T07:30:29;12.15;;;5.38;;
74920;SDS011;63483;47.384;8.860;2023-06-22T07:32:56;10.77;;;5.67;;
74920;SDS011;63483;47.384;8.860;2023-06-22T07:35:21;10.32;;;5.10;;
74920;SDS011;63483;47.384;8.860;2023-06-22T07:37:47;12.60;;;5.50;;
74920;SDS011;63483;47.384;8.860;2023-06-22T07:40:12;12.57;;;5.38;;
74920;SDS011;63483;47.384;8.860;2023-06-22T07:42:40;16.57;;;5.40;;
74920;SDS011;63483;47.384;8.860;2023-06-22T07:45:06;8.35;;;4.75;;
74920;SDS011;63483;47.384;8.860;2023-06-22T07:47:33;11.43;;;4.73;;
74920;SDS011;63483;47.384;8.860;2023-06-22T07:50:00;15.70;;;6.53;;
74920;SDS011;63483;47.384;8.860;2023-06-22T07:52:27;14.70;;;6.72;;
74920;SDS011;63483;47.384;8.860;2023-06-22T07:54:53;16.00;;;8.10;;
74920;SDS011;63483;47.384;8.860;2023-06-22T07:57:18;14.17;;;8.50;;
74920;SDS011;63483;47.384;8.860;2023-06-22T07:59:44;16.00;;;7.93;;
74920;SDS011;63483;47.384;8.860;2023-06-22T08:02:10;15.80;;;7.93;;
74920;SDS011;63483;47.384;8.860;2023-06-22T08:04:36;19.97;;;8.47;;
74920;SDS011;63483;47.384;8.860;2023-06-22T08:07:01;15.17;;;7.90;;
74920;SDS011;63483;47.384;8.860;2023-06-22T08:09:28;16.53;;;7.90;;
74920;SDS011;63483;47.384;8.860;2023-06-22T08:11:55;15.93;;;8.80;;
74920;SDS011;63483;47.384;8.860;2023-06-22T08:14:21;18.98;;;7.60;;
74920;SDS011;63483;47.384;8.860;2023-06-22T08:16:47;15.50;;;8.15;;
74920;SDS011;63483;47.384;8.860;2023-06-22T08:19:12;15.53;;;7.97;;
74920;SDS011;63483;47.384;8.860;2023-06-22T08:21:38;13.77;;;8.23;;
74920;SDS011;63483;47.384;8.860;2023-06-22T08:24:03;14.93;;;7.90;;
74920;SDS011;63483;47.384;8.860;2023-06-22T08:26:29;16.13;;;8.55;;
74920;SDS011;63483;47.384;8.860;2023-06-22T08:28:54;15.57;;;8.27;;
74920;SDS011;63483;47.384;8.860;2023-06-22T08:31:20;15.97;;;7.67;;
74920;SDS011;63483;47.384;8.860;2023-06-22T08:33:45;15.80;;;7.27;;
74920;SDS011;63483;47.384;8.860;2023-06-22T08:36:11;11.95;;;8.10;;
74920;SDS011;63483;47.384;8.860;2023-06-22T08:38:38;17.35;;;7.78;;
74920;SDS011;63483;47.384;8.860;2023-06-22T08:41:04;16.13;;;7.60;;
74920;SDS011;63483;47.384;8.860;2023-06-22T08:43:29;14.30;;;7.90;;
74920;SDS011;63483;47.384;8.860;2023-06-22T08:45:54;14.00;;;8.20;;
74920;SDS011;63483;47.384;8.860;2023-06-22T08:48:20;16.25;;;7.80;;
74920;SDS011;63483;47.384;8.860;2023-06-22T08:50:45;13.47;;;8.30;;
74920;SDS011;63483;47.384;8.860;2023-06-22T08:53:10;14.07;;;7.57;;
74920;SDS011;63483;47.384;8.860;2023-06-22T08:55:36;13.70;;;7.13;;
74920;SDS011;63483;47.384;8.860;2023-06-22T08:58:01;10.70;;;6.47;;
74920;SDS011;63483;47.384;8.860;2023-06-22T09:00:27;12.02;;;6.30;;
74920;SDS011;63483;47.384;8.860;2023-06-22T09:02:54;12.40;;;5.80;;
74920;SDS011;63483;47.384;8.860;2023-06-22T09:05:23;16.38;;;6.57;;
74920;SDS011;63483;47.384;8.860;2023-06-22T09:07:50;15.05;;;5.93;;
74920;SDS011;63483;47.384;8.860;2023-06-22T09:10:15;13.57;;;5.60;;
74920;SDS011;63483;47.384;8.860;2023-06-22T09:12:43;10.90;;;5.27;;
74920;SDS011;63483;47.384;8.860;2023-06-22T09:15:09;12.65;;;6.10;;
74920;SDS011;63483;47.384;8.860;2023-06-22T09:17:35;11.27;;;5.50;;
74920;SDS011;63483;47.384;8.860;2023-06-22T09:20:01;10.45;;;5.05;;
74920;SDS011;63483;47.384;8.860;2023-06-22T09:22:27;10.87;;;5.30;;
74920;SDS011;63483;47.384;8.860;2023-06-22T09:24:54;9.88;;;5.28;;
74920;SDS011;63483;47.384;8.860;2023-06-22T09:27:21;12.95;;;5.00;;
74920;SDS011;63483;47.384;8.860;2023-06-22T09:29:47;9.82;;;4.78;;
74920;SDS011;63483;47.384;8.860;2023-06-22T09:32:12;10.33;;;4.93;;
74920;SDS011;63483;47.384;8.860;2023-06-22T09:34:38;12.33;;;5.20;;
74920;SDS011;63483;47.384;8.860;2023-06-22T09:37:03;12.30;;;4.97;;
74920;SDS011;63483;47.384;8.860;2023-06-22T09:39:29;13.57;;;4.80;;
74920;SDS011;63483;47.384;8.860;2023-06-22T09:41:54;11.43;;;5.00;;
74920;SDS011;63483;47.384;8.860;2023-06-22T09:44:20;12.20;;;4.27;;
74920;SDS011;63483;47.384;8.860;2023-06-22T09:46:45;14.63;;;5.47;;
74920;SDS011;63483;47.384;8.860;2023-06-22T09:49:10;19.37;;;5.67;;
74920;SDS011;63483;47.384;8.860;2023-06-22T09:51:36;11.57;;;4.38;;
74920;SDS011;63483;47.384;8.860;2023-06-22T09:54:01;11.43;;;4.40;;
74920;SDS011;63483;47.384;8.860;2023-06-22T09:56:26;12.57;;;4.33;;
74920;SDS011;63483;47.384;8.860;2023-06-22T09:58:53;11.60;;;4.43;;
74920;SDS011;63483;47.384;8.860;2023-06-22T10:01:18;12.83;;;4.80;;
74920;SDS011;63483;47.384;8.860;2023-06-22T10:03:45;12.18;;;4.15;;
74920;SDS011;63483;47.384;8.860;2023-06-22T10:06:10;11.90;;;4.73;;
74920;SDS011;63483;47.384;8.860;2023-06-22T10:08:36;14.67;;;4.53;;
74920;SDS011;63483;47.384;8.860;2023-06-22T10:11:01;9.37;;;4.00;;
74920;SDS011;63483;47.384;8.860;2023-06-22T10:13:28;11.77;;;4.50;;
74920;SDS011;63483;47.384;8.860;2023-06-22T10:15:53;11.10;;;3.83;;
74920;SDS011;63483;47.384;8.860;2023-06-22T10:18:18;12.17;;;3.97;;
74920;SDS011;63483;47.384;8.860;2023-06-22T10:20:48;11.48;;;4.10;;
74920;SDS011;63483;47.384;8.860;2023-06-22T10:23:16;12.35;;;3.70;;
74920;SDS011;63483;47.384;8.860;2023-06-22T10:25:41;11.57;;;3.63;;
74920;SDS011;63483;47.384;8.860;2023-06-22T10:28:06;13.37;;;4.17;;
74920;SDS011;63483;47.384;8.860;2023-06-22T10:30:32;11.93;;;3.53;;
74920;SDS011;63483;47.384;8.860;2023-06-22T10:32:57;11.20;;;3.47;;
74920;SDS011;63483;47.384;8.860;2023-06-22T10:35:23;9.53;;;3.70;;
74920;SDS011;63483;47.384;8.860;2023-06-22T10:37:48;10.88;;;3.70;;
74920;SDS011;63483;47.384;8.860;2023-06-22T10:40:14;12.67;;;3.20;;
74920;SDS011;63483;47.384;8.860;2023-06-22T10:42:41;12.15;;;3.60;;
74920;SDS011;63483;47.384;8.860;2023-06-22T10:45:07;9.80;;;3.20;;
74920;SDS011;63483;47.384;8.860;2023-06-22T10:47:34;10.93;;;3.30;;
74920;SDS011;63483;47.384;8.860;2023-06-22T10:50:00;9.27;;;3.58;;
74920;SDS011;63483;47.384;8.860;2023-06-22T10:52:26;10.60;;;3.20;;
74920;SDS011;63483;47.384;8.860;2023-06-22T10:54:51;11.75;;;3.63;;
74920;SDS011;63483;47.384;8.860;2023-06-22T10:57:17;11.57;;;3.53;;
74920;SDS011;63483;47.384;8.860;2023-06-22T10:59:43;12.73;;;3.63;;
74920;SDS011;63483;47.384;8.860;2023-06-22T11:02:08;11.27;;;3.30;;
74920;SDS011;63483;47.384;8.860;2023-06-22T11:04:33;15.80;;;3.80;;
74920;SDS011;63483;47.384;8.860;2023-06-22T11:06:59;15.23;;;4.30;;
74920;SDS011;63483;47.384;8.860;2023-06-22T11:09:24;9.77;;;3.60;;
74920;SDS011;63483;47.384;8.860;2023-06-22T11:11:50;10.17;;;3.37;;
74920;SDS011;63483;47.384;8.860;2023-06-22T11:14:18;12.18;;;3.70;;
74920;SDS011;63483;47.384;8.860;2023-06-22T11:16:44;12.40;;;3.75;;
74920;SDS011;63483;47.384;8.860;2023-06-22T11:19:09;11.93;;;4.13;;
74920;SDS011;63483;47.384;8.860;2023-06-22T11:21:35;9.87;;;3.80;;
74920;SDS011;63483;47.384;8.860;2023-06-22T11:24:00;13.43;;;4.30;;
74920;SDS011;63483;47.384;8.860;2023-06-22T11:26:26;12.93;;;3.73;;
74920;SDS011;63483;47.384;8.860;2023-06-22T11:28:54;9.13;;;3.50;;
74920;SDS011;63483;47.384;8.860;2023-06-22T11:31:20;10.38;;;3.35;;
74920;SDS011;63483;47.384;8.860;2023-06-22T11:33:46;9.70;;;3.57;;
74920;SDS011;63483;47.384;8.860;2023-06-22T11:36:12;10.40;;;3.97;;
74920;SDS011;63483;47.384;8.860;2023-06-22T11:38:38;9.43;;;4.32;;
74920;SDS011;63483;47.384;8.860;2023-06-22T11:41:07;10.87;;;4.23;;
74920;SDS011;63483;47.384;8.860;2023-06-22T11:43:33;12.95;;;4.10;;
74920;SDS011;63483;47.384;8.860;2023-06-22T11:45:59;14.70;;;4.60;;
74920;SDS011;63483;47.384;8.860;2023-06-22T11:48:25;12.50;;;3.78;;
74920;SDS011;63483;47.384;8.860;2023-06-22T11:50:51;12.30;;;4.20;;
74920;SDS011;63483;47.384;8.860;2023-06-22T11:53:16;13.40;;;4.60;;
74920;SDS011;63483;47.384;8.860;2023-06-22T11:55:42;15.73;;;5.17;;
74920;SDS011;63483;47.384;8.860;2023-06-22T11:58:08;12.18;;;4.47;;
74920;SDS011;63483;47.384;8.860;2023-06-22T12:00:34;13.83;;;4.23;;
74920;SDS011;63483;47.384;8.860;2023-06-22T12:02:59;15.10;;;4.97;;
74920;SDS011;63483;47.384;8.860;2023-06-22T12:05:25;9.67;;;4.00;;
74920;SDS011;63483;47.384;8.860;2023-06-22T12:07:52;12.67;;;5.00;;
74920;SDS011;63483;47.384;8.860;2023-06-22T12:10:19;9.88;;;4.25;;
74920;SDS011;63483;47.384;8.860;2023-06-22T12:12:44;13.97;;;4.80;;
74920;SDS011;63483;47.384;8.860;2023-06-22T12:15:10;13.10;;;4.47;;
74920;SDS011;63483;47.384;8.860;2023-06-22T12:17:35;11.52;;;5.25;;
74920;SDS011;63483;47.384;8.860;2023-06-22T12:20:01;13.73;;;4.70;;
74920;SDS011;63483;47.384;8.860;2023-06-22T12:22:30;14.73;;;5.40;;
74920;SDS011;63483;47.384;8.860;2023-06-22T12:24:56;9.88;;;4.80;;
74920;SDS011;63483;47.384;8.860;2023-06-22T12:27:21;13.00;;;4.90;;
74920;SDS011;63483;47.384;8.860;2023-06-22T12:29:47;14.43;;;5.47;;
74920;SDS011;63483;47.384;8.860;2023-06-22T12:32:12;13.73;;;5.20;;
74920;SDS011;63483;47.384;8.860;2023-06-22T12:34:38;11.20;;;5.40;;
74920;SDS011;63483;47.384;8.860;2023-06-22T12:37:04;12.65;;;5.65;;
74920;SDS011;63483;47.384;8.860;2023-06-22T12:39:31;13.02;;;4.88;;
74920;SDS011;63483;47.384;8.860;2023-06-22T12:41:56;14.17;;;5.30;;
74920;SDS011;63483;47.384;8.860;2023-06-22T12:44:22;12.93;;;5.38;;
74920;SDS011;63483;47.384;8.860;2023-06-22T12:46:47;13.27;;;5.23;;
74920;SDS011;63483;47.384;8.860;2023-06-22T12:49:13;13.00;;;4.80;;
74920;SDS011;63483;47.384;8.860;2023-06-22T12:51:41;15.60;;;5.00;;
74920;SDS011;63483;47.384;8.860;2023-06-22T12:54:08;18.00;;;5.20;;
74920;SDS011;63483;47.384;8.860;2023-06-22T12:56:34;11.15;;;4.88;;
74920;SDS011;63483;47.384;8.860;2023-06-22T12:59:00;13.10;;;4.93;;
74920;SDS011;63483;47.384;8.860;2023-06-22T13:01:28;12.80;;;5.20;;
74920;SDS011;63483;47.384;8.860;2023-06-22T13:03:53;15.67;;;5.33;;
74920;SDS011;63483;47.384;8.860;2023-06-22T13:06:19;10.80;;;4.47;;
74920;SDS011;63483;47.384;8.860;2023-06-22T13:08:45;14.37;;;4.83;;
74920;SDS011;63483;47.384;8.860;2023-06-22T13:11:10;14.90;;;5.60;;
74920;SDS011;63483;47.384;8.860;2023-06-22T13:13:35;13.93;;;5.13;;
74920;SDS011;63483;47.384;8.860;2023-06-22T13:16:01;13.33;;;5.20;;
74920;SDS011;63483;47.384;8.860;2023-06-22T13:18:26;14.87;;;5.33;;
74920;SDS011;63483;47.384;8.860;2023-06-22T13:20:51;15.00;;;4.70;;
74920;SDS011;63483;47.384;8.860;2023-06-22T13:23:19;12.52;;;4.70;;
74920;SDS011;63483;47.384;8.860;2023-06-22T13:25:45;14.33;;;4.20;;
74920;SDS011;63483;47.384;8.860;2023-06-22T13:28:10;13.35;;;4.20;;
74920;SDS011;63483;47.384;8.860;2023-06-22T13:30:38;13.00;;;4.83;;
74920;SDS011;63483;47.384;8.860;2023-06-22T13:33:03;13.03;;;4.63;;
74920;SDS011;63483;47.384;8.860;2023-06-22T13:35:29;15.27;;;5.73;;
74920;SDS011;63483;47.384;8.860;2023-06-22T13:37:54;14.70;;;5.33;;
74920;SDS011;63483;47.384;8.860;2023-06-22T13:40:19;15.17;;;5.40;;
74920;SDS011;63483;47.384;8.860;2023-06-22T13:42:45;15.97;;;5.20;;
74920;SDS011;63483;47.384;8.860;2023-06-22T13:45:10;17.53;;;6.00;;
74920;SDS011;63483;47.384;8.860;2023-06-22T13:47:35;11.57;;;5.30;;
74920;SDS011;63483;47.384;8.860;2023-06-22T13:50:01;13.80;;;5.33;;
74920;SDS011;63483;47.384;8.860;2023-06-22T13:52:26;12.15;;;5.22;;
74920;SDS011;63483;47.384;8.860;2023-06-22T13:54:51;12.77;;;5.00;;
74920;SDS011;63483;47.384;8.860;2023-06-22T13:57:17;10.50;;;4.10;;
74920;SDS011;63483;47.384;8.860;2023-06-22T13:59:42;12.13;;;3.70;;
74920;SDS011;63483;47.384;8.860;2023-06-22T14:02:07;11.03;;;3.77;;
74920;SDS011;63483;47.384;8.860;2023-06-22T14:04:33;8.47;;;3.67;;
74920;SDS011;63483;47.384;8.860;2023-06-22T14:06:58;9.97;;;3.17;;
74920;SDS011;63483;47.384;8.860;2023-06-22T14:09:23;11.43;;;3.60;;
74920;SDS011;63483;47.384;8.860;2023-06-22T14:11:49;9.07;;;3.47;;
74920;SDS011;63483;47.384;8.860;2023-06-22T14:14:14;7.63;;;2.70;;
74920;SDS011;63483;47.384;8.860;2023-06-22T14:16:39;10.20;;;3.33;;
74920;SDS011;63483;47.384;8.860;2023-06-22T14:19:05;9.77;;;3.60;;
74920;SDS011;63483;47.384;8.860;2023-06-22T14:21:30;8.87;;;2.90;;
74920;SDS011;63483;47.384;8.860;2023-06-22T14:23:55;8.57;;;3.00;;
74920;SDS011;63483;47.384;8.860;2023-06-22T14:26:21;8.93;;;2.80;;
74920;SDS011;63483;47.384;8.860;2023-06-22T14:28:47;11.07;;;2.50;;
74920;SDS011;63483;47.384;8.860;2023-06-22T14:31:15;7.22;;;3.10;;
74920;SDS011;63483;47.384;8.860;2023-06-22T14:33:41;9.68;;;2.40;;
74920;SDS011;63483;47.384;8.860;2023-06-22T14:36:08;7.72;;;2.70;;
74920;SDS011;63483;47.384;8.860;2023-06-22T14:38:33;5.30;;;2.40;;
74920;SDS011;63483;47.384;8.860;2023-06-22T14:41:00;9.00;;;2.17;;
74920;SDS011;63483;47.384;8.860;2023-06-22T14:43:26;10.30;;;2.80;;